Main page
METAR-TAF:

METAR-TAF

Airports :

Ilhéus Jorge Amado Airport

Ilhéus, Bahia, Brazil

latitude: 14-49S, longitude: 039-02W, elevation: 4 m

Current weather observation

The report was made 1 hour and 23 minutes ago, at 14:00 UTC
Wind 8 kt from the East
Temperature 29°C
Humidity 79%
Pressure 1018 hPa
Visibility 10 km or more
Scattered clouds at a height of 1900 ft

METAR: SBIL 181400Z 10008KT 9999 SCT019 29/25 Q1018

Time: 12:23 (15:23 UTC)

Forecast

The report was made 5 hours and 23 minutes ago, at 10:00 UTC
Forecast valid from 18 at 12 UTC to 18 at 24 UTC
Wind 10 kt from the East
Visibility: 8000 m
Scattered clouds at a height of 1700 ft
Scattered clouds at a height of 4000 ft

TAF: SBIL 181000Z 1812/1824 08010KT 8000 SCT017 SCT040 TX30/1815Z TN27/1823Z RMK PEU

Weather observations and forecasts of more than 4000 airports (METAR and TAF reports).

The available stations are represented by yellow and red dots on the map.

Hover mouse over dot to see the name of the station.

Then click to see weather observations and forecasts.

To change the map : click on the green buttons with a black cross to zoom in, on the green button with a dash to zoom out, or on the green arrows for adjacent maps.


METAR-TAF: